Time;durP1;ratioP1;P1;durP2;ratioP2;P2;SDS_P1;SDS_P2;PMS_P1;PMS_P2;Temp;Humidity;BMP_temperature;BMP_pressure;BME280_temperature;BME280_humidity;BME280_pressure;Samples;Min_cycle;Max_cycle;Signal;HPM_P1;HPM_P2
2022/04/01 00:01:29;;;;;;;3.60;1.90;;;;;;;2.10;36.03;99302.64;84890;1320;22654;-79
2022/04/01 00:03:36;;;;;;;;;;;;;;;2.10;36.04;99311.43;84895;1328;22550;-79
2022/04/01 00:05:48;;;;;;;5.60;2.80;;;;;;;2.07;36.13;99299.11;84880;1323;26041;-74
2022/04/01 00:07:57;;;;;;;5.80;3.70;;;;;;;2.05;36.16;99302.75;84776;1326;22575;-75
2022/04/01 00:10:07;;;;;;;11.00;4.60;;;;;;;2.04;36.26;99306.21;84912;1324;24768;-74
2022/04/01 00:12:16;;;;;;;6.80;4.40;;;;;;;2.03;36.27;99300.04;84156;1325;1003123;-74
2022/04/01 00:14:25;;;;;;;5.20;3.40;;;;;;;2.03;36.39;99300.23;84866;1327;22690;-75
2022/04/01 00:16:37;;;;;;;4.90;2.60;;;;;;;2.03;36.54;99298.67;84154;1325;1003083;-74
2022/04/01 00:18:49;;;;;;;6.40;2.90;;;;;;;2.02;36.44;99301.77;84856;1323;22596;-74
2022/04/01 00:20:58;;;;;;;3.80;2.30;;;;;;;2.00;36.45;99303.02;84854;1327;22586;-78
2022/04/01 00:23:12;;;;;;;8.00;2.60;;;;;;;1.99;36.62;99295.48;84929;1324;22735;-79
2022/04/01 00:25:21;;;;;;;5.00;2.60;;;;;;;1.97;36.46;99292.95;84911;1324;22581;-78
2022/04/01 00:27:30;;;;;;;5.70;3.40;;;;;;;1.96;36.63;99290.55;84225;1324;1003069;-78
2022/04/01 00:29:39;;;;;;;6.70;3.00;;;;;;;1.95;36.59;99287.98;84846;1328;22592;-79
2022/04/01 00:31:49;;;;;;;4.70;2.80;;;;;;;1.95;36.61;99286.45;84867;1325;25948;-78
2022/04/01 00:36:39;;;;;;;3.70;2.80;;;;;;;1.95;36.61;99279.23;81894;1371;544932;-79
2022/04/01 00:38:51;;;;;;;3.30;2.30;;;;;;;1.93;36.76;99276.19;84158;1340;22618;-79
2022/04/01 00:41:00;;;;;;;6.20;2.20;;;;;;;1.92;36.69;99278.61;84057;1336;22657;-79
2022/04/01 00:43:12;;;;;;;4.70;2.30;;;;;;;1.91;36.77;99275.35;84047;1339;22606;-79
2022/04/01 00:45:24;;;;;;;5.50;1.80;;;;;;;1.90;36.79;99274.70;84086;1344;22591;-77
2022/04/01 00:47:32;;;;;;;2.80;2.10;;;;;;;1.88;36.89;99282.98;84097;1339;22622;-79
2022/04/01 00:49:42;;;;;;;3.00;2.10;;;;;;;1.86;36.80;99270.80;81863;1341;3119449;-75
2022/04/01 00:51:53;;;;;;;6.30;3.30;;;;;;;1.86;36.84;99274.60;84278;1339;22648;-74
2022/04/01 00:54:02;;;;;;;4.60;2.50;;;;;;;1.85;37.11;99279.78;84280;1337;22860;-75
2022/04/01 00:56:13;;;;;;;5.30;2.20;;;;;;;1.84;36.86;99275.34;84250;1338;22730;-74
2022/04/01 00:58:25;;;;;;;10.70;2.30;;;;;;;1.83;36.83;99275.01;84389;1335;22600;-75
2022/04/01 01:00:35;;;;;;;16.30;6.80;;;;;;;1.82;36.96;99271.41;84450;1332;22617;-78
2022/04/01 01:02:47;;;;;;;8.30;3.00;;;;;;;1.82;36.96;99269.17;84446;1330;22641;-79
2022/04/01 01:04:59;;;;;;;3.80;2.60;;;;;;;1.81;37.21;99268.50;84479;1327;22713;-80
2022/04/01 01:07:09;;;;;;;6.50;1.80;;;;;;;1.81;36.93;99270.04;84450;1334;26520;-79
2022/04/01 01:09:22;;;;;;;3.30;2.10;;;;;;;1.81;37.11;99273.48;84455;1334;22984;-77
2022/04/01 01:11:31;;;;;;;6.10;2.20;;;;;;;1.80;37.08;99264.73;84377;1336;22754;-78
2022/04/01 01:13:40;;;;;;;3.00;2.40;;;;;;;1.81;37.29;99267.98;84442;1335;25468;-79
2022/04/01 01:15:49;;;;;;;4.30;2.40;;;;;;;1.80;37.11;99262.67;84448;1334;23044;-78
2022/04/01 01:17:58;;;;;;;2.70;1.90;;;;;;;1.80;37.17;99264.92;84457;1335;22612;-79
2022/04/01 01:20:12;;;;;;;6.30;2.10;;;;;;;1.79;37.26;99259.09;84793;1322;25478;-80
2022/04/01 01:22:21;;;;;;;3.60;1.70;;;;;;;1.78;37.29;99258.43;84744;1326;22607;-78
2022/04/01 01:24:35;;;;;;;3.90;2.40;;;;;;;1.77;37.22;99255.52;84770;1326;22577;-75
2022/04/01 01:26:52;;;;;;;3.80;1.90;;;;;;;1.77;37.39;99250.35;84794;1321;22673;-75
2022/04/01 01:29:05;;;;;;;2.50;1.70;;;;;;;1.77;37.37;99254.66;84773;1326;25433;-74
2022/04/01 01:31:18;;;;;;;7.10;2.20;;;;;;;1.75;37.47;99252.80;84778;1330;22576;-76
2022/04/01 01:33:28;;;;;;;2.40;1.50;;;;;;;1.75;37.35;99247.48;84763;1326;22598;-76
2022/04/01 01:35:38;;;;;;;;;;;;;;;1.73;37.54;99248.20;84808;1324;22854;-75
2022/04/01 01:37:47;;;;;;;3.90;2.30;;;;;;;1.72;37.67;99244.27;84674;1330;22982;-75
2022/04/01 01:39:56;;;;;;;8.00;2.10;;;;;;;1.73;37.58;99248.73;84789;1323;22662;-79
2022/04/01 01:42:09;;;;;;;6.90;2.30;;;;;;;1.72;37.79;99247.71;84761;1327;25435;-77
2022/04/01 01:44:18;;;;;;;5.60;2.60;;;;;;;1.70;37.73;99247.74;84773;1326;24147;-78
2022/04/01 01:46:28;;;;;;;4.20;2.10;;;;;;;1.70;37.83;99250.34;84776;1327;24351;-79
2022/04/01 01:48:36;;;;;;;3.70;2.50;;;;;;;1.67;37.74;99250.40;84779;1327;22647;-79
2022/04/01 01:55:41;;;;;;;5.00;2.50;;;;;;;1.63;37.95;99240.50;84691;1328;22612;-76
2022/04/01 01:57:51;;;;;;;3.50;2.30;;;;;;;1.63;37.80;99236.55;84717;1329;23186;-76
2022/04/01 02:00:10;;;;;;;4.40;2.50;;;;;;;1.63;38.12;99233.30;84757;1324;22948;-80
2022/04/01 02:02:19;;;;;;;5.40;2.70;;;;;;;1.60;38.05;99234.37;84682;1328;22650;-80
2022/04/01 02:04:28;;;;;;;4.60;2.60;;;;;;;1.59;38.21;99226.14;84813;1323;22846;-76
2022/04/01 02:06:37;;;;;;;6.60;2.90;;;;;;;1.59;38.04;99230.96;84774;1326;25444;-76
2022/04/01 02:08:46;;;;;;;5.70;2.40;;;;;;;1.58;38.07;99225.48;84691;1327;23845;-76
2022/04/01 02:10:55;;;;;;;3.30;2.50;;;;;;;1.58;38.12;99229.77;84771;1326;22554;-75
2022/04/01 02:13:07;;;;;;;3.80;2.20;;;;;;;1.57;37.98;99227.91;84762;1320;22850;-75
2022/04/01 02:15:18;;;;;;;2.80;2.10;;;;;;;1.56;38.19;99229.47;84775;1322;22586;-76
2022/04/01 02:17:32;;;;;;;3.40;1.80;;;;;;;1.54;38.29;99224.70;84744;1327;24253;-76
2022/04/01 02:19:41;;;;;;;5.00;2.80;;;;;;;1.53;38.37;99224.89;84746;1327;22616;-78
2022/04/01 02:21:54;;;;;;;5.50;1.80;;;;;;;1.51;38.48;99223.02;84724;1329;22658;-79
2022/04/01 02:24:03;;;;;;;4.40;2.40;;;;;;;1.50;38.34;99219.27;84757;1326;25574;-78
2022/04/01 02:26:15;;;;;;;4.10;1.90;;;;;;;1.48;38.52;99216.21;84773;1330;22694;-78
2022/04/01 02:28:24;;;;;;;2.40;2.00;;;;;;;1.48;38.57;99214.50;84765;1326;23801;-78
2022/04/01 02:30:35;;;;;;;4.50;1.90;;;;;;;1.47;38.82;99215.53;84758;1328;22699;-79
2022/04/01 02:32:44;;;;;;;3.00;2.20;;;;;;;1.47;38.90;99214.17;84766;1326;22935;-80
2022/04/01 02:34:53;;;;;;;3.40;1.80;;;;;;;1.47;38.74;99210.40;84701;1327;22856;-78
2022/04/01 02:37:05;;;;;;;3.90;2.10;;;;;;;1.46;38.96;99214.20;84057;1326;1003187;-79
2022/04/01 02:39:14;;;;;;;4.70;1.90;;;;;;;1.44;38.88;99209.08;84676;1328;25352;-75
2022/04/01 02:41:22;;;;;;;5.30;2.40;;;;;;;1.44;39.03;99205.65;84789;1328;24565;-74
2022/04/01 02:43:34;;;;;;;19.90;2.10;;;;;;;1.43;39.02;99202.39;84767;1328;22622;-75
2022/04/01 02:45:43;;;;;;;4.60;2.10;;;;;;;1.43;39.35;99210.81;84760;1326;22621;-78
2022/04/01 02:47:55;;;;;;;2.80;1.90;;;;;;;1.41;39.21;99205.52;84772;1324;22852;-80
2022/04/01 02:50:04;;;;;;;3.60;2.20;;;;;;;1.39;39.35;99204.36;84765;1325;25566;-80
2022/04/01 02:52:13;;;;;;;3.00;2.20;;;;;;;1.37;39.63;99199.06;84761;1326;22594;-79
2022/04/01 02:54:22;;;;;;;8.90;1.90;;;;;;;1.37;39.64;99200.27;84770;1326;22856;-80
2022/04/01 02:56:31;;;;;;;6.90;1.90;;;;;;;1.37;39.76;99199.59;84784;1326;25574;-79
2022/04/01 02:58:43;;;;;;;2.90;1.70;;;;;;;1.35;39.70;99195.68;84758;1324;22687;-80
2022/04/01 03:00:51;;;;;;;6.50;1.70;;;;;;;1.34;40.08;99197.42;84777;1325;22807;-79
2022/04/01 03:03:06;;;;;;;2.90;1.50;;;;;;;1.34;39.99;99191.23;84746;1324;26142;-78
2022/04/01 03:05:15;;;;;;;5.40;1.50;;;;;;;1.33;40.16;99193.49;84761;1327;23913;-74
2022/04/01 03:07:24;;;;;;;2.40;1.90;;;;;;;1.31;39.96;99189.41;84689;1329;22619;-76
2022/04/01 03:09:36;;;;;;;5.20;1.90;;;;;;;1.30;40.39;99191.84;84729;1327;22710;-76
2022/04/01 03:11:45;;;;;;;2.90;1.40;;;;;;;1.29;40.33;99190.98;84787;1325;22584;-76
2022/04/01 03:13:53;;;;;;;3.40;1.80;;;;;;;1.28;40.53;99190.83;84055;1326;1003254;-76
2022/04/01 03:16:02;;;;;;;6.30;2.00;;;;;;;1.26;40.48;99186.40;84801;1318;24301;-76
2022/04/01 03:18:11;;;;;;;4.60;1.80;;;;;;;1.26;40.67;99191.38;84756;1326;22588;-76
2022/04/01 03:20:20;;;;;;;3.10;1.90;;;;;;;1.25;40.76;99184.36;84784;1327;25492;-79
2022/04/01 03:22:32;;;;;;;4.50;2.60;;;;;;;1.23;41.15;99181.48;84762;1326;22593;-78
2022/04/01 03:24:41;;;;;;;4.60;1.70;;;;;;;1.23;41.19;99179.08;84792;1326;22582;-78
2022/04/01 03:26:49;;;;;;;;;;;;;;;1.22;41.20;99177.19;84767;1326;22583;-78
2022/04/01 03:28:59;;;;;;;4.60;1.90;;;;;;;1.19;41.54;99176.41;84764;1327;25442;-78
2022/04/01 03:31:09;;;;;;;5.40;2.50;;;;;;;1.18;41.44;99178.83;84757;1326;23948;-80
2022/04/01 03:33:19;;;;;;;5.70;2.30;;;;;;;1.16;41.90;99177.31;84769;1326;22594;-80
2022/04/01 03:35:27;;;;;;;3.00;1.90;;;;;;;1.15;41.92;99177.52;84763;1327;24393;-80
2022/04/01 03:37:36;;;;;;;20.40;3.40;;;;;;;1.12;42.31;99176.19;84773;1327;22721;-80
2022/04/01 03:39:45;;;;;;;4.30;2.00;;;;;;;1.11;42.52;99178.95;84788;1329;22635;-80
2022/04/01 03:41:54;;;;;;;9.30;2.00;;;;;;;1.10;42.66;99176.08;84694;1329;22887;-80
2022/04/01 03:44:06;;;;;;;7.50;2.30;;;;;;;1.07;42.64;99175.27;84758;1327;22590;-80
2022/04/01 03:46:17;;;;;;;9.30;2.20;;;;;;;1.05;43.23;99175.14;84780;1327;22596;-74
2022/04/01 03:48:36;;;;;;;5.20;2.40;;;;;;;1.04;42.92;99174.80;84043;1326;1003017;-74
2022/04/01 03:50:44;;;;;;;6.00;2.30;;;;;;;1.02;42.77;99176.38;84775;1326;24409;-75
2022/04/01 03:52:56;;;;;;;6.60;2.70;;;;;;;1.01;43.26;99177.59;84768;1326;22597;-73
2022/04/01 03:55:07;;;;;;;3.90;2.30;;;;;;;1.00;43.22;99173.33;84793;1324;22787;-80
2022/04/01 03:57:20;;;;;;;12.30;3.20;;;;;;;1.00;43.18;99174.20;84772;1326;22616;-79
2022/04/01 03:59:40;;;;;;;9.40;4.70;;;;;;;1.00;43.67;99180.02;84705;1330;23970;-75
2022/04/01 04:01:52;;;;;;;3.90;2.10;;;;;;;0.98;43.78;99178.17;84791;1328;22610;-74
2022/04/01 04:04:02;;;;;;;12.60;4.40;;;;;;;0.94;44.16;99187.51;84739;1326;25427;-75
2022/04/01 04:06:13;;;;;;;12.50;6.40;;;;;;;0.92;44.22;99182.23;84766;1327;22889;-75
2022/04/01 04:08:25;;;;;;;17.20;4.60;;;;;;;0.90;44.80;99189.48;84745;1321;22749;-76
2022/04/01 04:10:35;;;;;;;10.80;2.20;;;;;;;0.87;44.80;99184.39;84781;1325;22603;-78
2022/04/01 04:12:44;;;;;;;6.70;1.60;;;;;;;0.85;44.69;99177.04;84739;1326;24103;-79
2022/04/01 04:14:57;;;;;;;5.50;2.40;;;;;;;0.84;44.48;99183.25;84758;1327;23826;-74
2022/04/01 04:17:10;;;;;;;7.70;2.00;;;;;;;0.81;44.46;99177.79;84786;1327;22612;-74
2022/04/01 04:19:44;;;;;;;9.50;1.80;;;;;;;0.81;44.75;99190.85;84760;1323;22586;-78
2022/04/01 04:21:57;;;;;;;7.60;2.70;;;;;;;0.80;44.58;99184.35;84755;1326;22919;-77
2022/04/01 04:24:11;;;;;;;11.20;2.20;;;;;;;0.80;45.00;99185.20;84749;1327;22603;-76
2022/04/01 04:26:27;;;;;;;7.90;2.00;;;;;;;0.78;44.83;99189.17;84733;1327;22599;-77
2022/04/01 04:28:38;;;;;;;20.00;2.90;;;;;;;0.77;45.13;99189.86;84753;1326;22591;-77
2022/04/01 04:30:51;;;;;;;11.50;3.10;;;;;;;0.76;45.14;99189.55;84706;1324;22629;-79
2022/04/01 04:33:06;;;;;;;8.50;2.70;;;;;;;0.75;45.42;99189.58;84782;1326;22603;-79
2022/04/01 04:35:18;;;;;;;8.30;1.90;;;;;;;0.73;45.54;99187.20;84790;1324;22587;-78
2022/04/01 04:37:31;;;;;;;5.40;1.90;;;;;;;0.72;45.37;99194.42;84757;1325;22938;-78
2022/04/01 04:39:43;;;;;;;5.20;1.90;;;;;;;0.71;45.51;99186.73;84669;1329;23966;-74
2022/04/01 04:41:53;;;;;;;14.70;2.40;;;;;;;0.68;45.67;99185.39;84771;1326;22640;-74
2022/04/01 04:44:06;;;;;;;3.00;1.60;;;;;;;0.65;45.63;99185.96;84663;1327;22800;-74
2022/04/01 04:46:15;;;;;;;4.00;2.10;;;;;;;0.64;45.33;99181.68;84736;1327;22875;-77
2022/04/01 04:48:28;;;;;;;5.50;1.90;;;;;;;0.66;45.92;99185.79;84773;1324;22573;-78
2022/04/01 04:50:40;;;;;;;5.60;2.00;;;;;;;0.65;45.93;99187.35;84760;1327;22590;-73
2022/04/01 04:52:54;;;;;;;8.90;2.10;;;;;;;0.65;45.82;99186.30;84761;1326;24051;-75
2022/04/01 04:55:04;;;;;;;10.30;2.40;;;;;;;0.65;45.85;99187.86;84729;1329;22589;-77
2022/04/01 04:57:16;;;;;;;15.70;2.00;;;;;;;0.64;45.89;99192.16;84705;1328;25435;-79
2022/04/01 04:59:26;;;;;;;22.00;4.10;;;;;;;0.65;46.13;99199.02;84791;1326;23642;-75
2022/04/01 05:01:43;;;;;;;10.80;2.00;;;;;;;0.65;45.60;99195.58;84751;1321;22598;-73
2022/04/01 05:04:28;;;;;;;12.10;2.40;;;;;;;0.66;45.88;99193.15;84752;1326;22599;-74
2022/04/01 05:06:50;;;;;;;13.20;1.90;;;;;;;0.67;45.61;99198.80;84741;1324;22586;-73
2022/04/01 05:09:07;;;;;;;7.20;2.30;;;;;;;0.68;45.57;99199.11;84804;1323;22611;-73
2022/04/01 05:11:27;;;;;;;7.50;2.10;;;;;;;0.68;45.91;99195.51;84770;1326;23963;-76
2022/04/01 05:13:46;;;;;;;6.40;1.70;;;;;;;0.68;45.68;99196.73;84767;1326;22852;-77
2022/04/01 05:16:02;;;;;;;5.50;3.10;;;;;;;0.69;45.89;99199.27;84126;1326;1002548;-77
2022/04/01 05:18:23;;;;;;;19.80;3.10;;;;;;;0.68;45.90;99201.18;84768;1323;22610;-77
2022/04/01 05:20:35;;;;;;;7.50;2.60;;;;;;;0.68;46.79;99213.03;84803;1326;25447;-77
2022/04/01 05:22:54;;;;;;;4.60;2.40;;;;;;;0.65;46.68;99201.06;84802;1326;22596;-77
2022/04/01 05:25:09;;;;;;;15.90;2.80;;;;;;;0.64;46.83;99204.00;84714;1330;24034;-74
2022/04/01 05:27:24;;;;;;;17.00;3.50;;;;;;;0.64;46.94;99203.48;84043;1326;1003122;-74
2022/04/01 05:29:36;;;;;;;13.70;3.70;;;;;;;0.65;46.83;99200.57;84044;1326;1002966;-77
2022/04/01 05:31:55;;;;;;;22.50;4.10;;;;;;;0.65;46.95;99200.73;84006;1328;1002616;-77
2022/04/01 05:34:17;;;;;;;24.10;3.80;;;;;;;0.64;47.49;99194.21;84767;1326;24252;-75
2022/04/01 05:36:27;;;;;;;41.40;7.30;;;;;;;0.63;47.65;99201.11;84746;1326;25297;-78
2022/04/01 05:38:35;;;;;;;25.10;3.90;;;;;;;0.61;47.98;99206.80;84764;1326;22852;-79
2022/04/01 05:40:44;;;;;;;20.30;3.50;;;;;;;0.59;48.15;99200.65;84796;1324;22618;-74
2022/04/01 05:42:57;;;;;;;13.20;2.60;;;;;;;0.59;47.98;99207.35;84772;1327;22734;-73
2022/04/01 05:45:07;;;;;;;20.80;4.40;;;;;;;0.59;48.22;99214.73;84793;1326;25442;-72
2022/04/01 05:47:16;;;;;;;20.70;4.40;;;;;;;0.56;48.58;99213.56;84029;1323;1005596;-74
2022/04/01 05:49:29;;;;;;;32.20;5.70;;;;;;;0.55;48.89;99210.85;84744;1323;23991;-74
2022/04/01 05:51:38;;;;;;;38.60;6.10;;;;;;;0.52;48.95;99210.20;84034;1324;1003614;-77
2022/04/01 05:53:48;;;;;;;15.60;3.20;;;;;;;0.51;49.08;99206.27;83909;1330;1003129;-73
2022/04/01 05:55:58;;;;;;;46.10;7.20;;;;;;;0.50;49.03;99207.84;84808;1329;22576;-75
2022/04/01 05:58:08;;;;;;;11.70;2.60;;;;;;;0.50;49.01;99209.21;84768;1326;22662;-76
2022/04/01 06:00:20;;;;;;;22.90;4.50;;;;;;;0.49;48.72;99204.58;84750;1326;22577;-77
2022/04/01 06:03:13;;;;;;;48.30;8.50;;;;;;;0.51;49.00;99203.70;84812;1327;22587;-75
2022/04/01 06:05:29;;;;;;;30.60;5.80;;;;;;;0.54;48.81;99205.53;84755;1327;24051;-76
2022/04/01 06:07:45;;;;;;;39.20;10.10;;;;;;;0.56;48.87;99202.09;84778;1324;22612;-78
2022/04/01 06:10:01;;;;;;;62.00;7.50;;;;;;;0.56;48.53;99199.15;84779;1326;22601;-77
2022/04/01 06:12:20;;;;;;;17.70;4.50;;;;;;;0.59;48.21;99199.98;84723;1326;22578;-77
2022/04/01 06:14:40;;;;;;;43.20;7.30;;;;;;;0.61;48.08;99195.98;84785;1326;22940;-77
2022/04/01 06:17:08;;;;;;;21.20;3.20;;;;;;;0.65;47.81;99194.90;84772;1326;22648;-76
2022/04/01 06:19:24;;;;;;;16.10;4.70;;;;;;;0.70;47.55;99195.67;84677;1330;23791;-74
2022/04/01 06:21:38;;;;;;;18.90;3.30;;;;;;;0.74;47.17;99191.48;84696;1326;22679;-75
2022/04/01 06:24:09;;;;;;;33.00;7.20;;;;;;;0.78;46.96;99192.95;84774;1325;22812;-74
2022/04/01 06:26:23;;;;;;;20.50;4.30;;;;;;;0.83;46.85;99194.05;84068;1326;1016473;-77
2022/04/01 06:28:35;;;;;;;25.70;5.40;;;;;;;0.86;46.69;99196.92;84735;1327;22607;-77
2022/04/01 06:30:44;;;;;;;12.20;2.80;;;;;;;0.90;46.46;99199.11;84771;1325;24349;-75
2022/04/01 06:33:04;;;;;;;50.10;7.10;;;;;;;0.95;46.42;99194.20;84770;1326;22900;-75
2022/04/01 06:35:19;;;;;;;57.30;8.30;;;;;;;0.99;45.87;99194.98;84778;1326;23943;-76
2022/04/01 06:37:33;;;;;;;26.00;4.60;;;;;;;1.03;45.62;99196.63;84782;1326;22690;-77
2022/04/01 06:39:47;;;;;;;13.70;2.70;;;;;;;1.07;45.86;99192.10;84768;1320;22623;-74
2022/04/01 06:41:58;;;;;;;28.10;6.90;;;;;;;1.10;45.96;99199.27;84779;1327;22674;-74
2022/04/01 06:44:07;;;;;;;27.90;5.60;;;;;;;1.11;45.93;99192.03;84765;1331;22594;-74
2022/04/01 06:46:16;;;;;;;24.80;6.20;;;;;;;1.11;46.07;99195.63;84779;1325;22859;-78
2022/04/01 06:48:25;;;;;;;11.60;3.70;;;;;;;1.14;46.01;99197.64;84808;1327;22590;-76
2022/04/01 06:50:34;;;;;;;39.00;5.70;;;;;;;1.15;46.65;99204.83;84851;1326;22581;-77
2022/04/01 06:52:43;;;;;;;12.20;2.60;;;;;;;1.12;47.23;99202.65;84720;1327;22686;-78
2022/04/01 06:54:52;;;;;;;12.50;3.40;;;;;;;1.08;46.96;99206.84;84804;1328;22660;-78
2022/04/01 06:57:01;;;;;;;30.70;10.70;;;;;;;1.04;47.72;99199.35;84780;1326;22696;-78
2022/04/01 06:59:10;;;;;;;14.30;5.90;;;;;;;1.03;47.78;99197.32;84808;1324;22927;-76
2022/04/01 07:01:19;;;;;;;10.40;3.40;;;;;;;1.03;47.76;99200.92;84777;1328;23045;-75
2022/04/01 07:03:28;;;;;;;14.80;4.20;;;;;;;1.03;47.80;99193.71;84769;1326;24568;-75
2022/04/01 07:05:40;;;;;;;41.70;9.70;;;;;;;1.07;47.33;99191.05;84768;1324;22800;-73
2022/04/01 07:07:51;;;;;;;39.00;6.10;;;;;;;1.11;47.34;99190.13;84785;1324;22670;-74
2022/04/01 07:10:00;;;;;;;44.00;9.00;;;;;;;1.16;47.79;99199.82;84078;1325;1003278;-78
2022/04/01 07:12:11;;;;;;;34.60;6.60;;;;;;;1.18;48.45;99193.43;84785;1326;22591;-78
2022/04/01 07:14:20;;;;;;;44.30;10.20;;;;;;;1.17;48.14;99193.11;84756;1326;23900;-75
2022/04/01 07:16:28;;;;;;;51.00;9.40;;;;;;;1.16;47.78;99193.45;84795;1326;22587;-73
2022/04/01 07:18:37;;;;;;;20.00;5.30;;;;;;;1.18;48.05;99198.93;84794;1326;22582;-73
2022/04/01 07:20:49;;;;;;;13.10;5.50;;;;;;;1.20;48.36;99199.08;84797;1326;22598;-74
2022/04/01 07:22:58;;;;;;;16.00;4.70;;;;;;;1.21;48.41;99200.76;84791;1326;25275;-74
2022/04/01 07:25:11;;;;;;;8.20;3.00;;;;;;;1.20;48.36;99192.55;84051;1324;1003167;-74
2022/04/01 07:27:21;;;;;;;4.20;2.50;;;;;;;1.22;48.38;99196.09;84772;1326;22687;-73
2022/04/01 07:29:36;;;;;;;22.90;6.20;;;;;;;1.26;48.42;99197.23;84809;1326;23861;-78
2022/04/01 07:34:23;;;;;;;11.30;4.30;;;;;;;1.32;48.20;99190.77;84809;1326;22811;-75
2022/04/01 07:36:32;;;;;;;12.60;2.90;;;;;;;1.37;48.16;99185.67;84761;1326;24084;-74
2022/04/01 07:38:44;;;;;;;20.00;3.80;;;;;;;1.43;47.97;99188.99;84694;1321;22610;-77
2022/04/01 07:40:53;;;;;;;14.50;3.10;;;;;;;1.47;48.30;99193.02;84760;1326;22591;-81
2022/04/01 07:43:04;;;;;;;15.40;3.60;;;;;;;1.49;48.46;99195.23;84780;1326;22605;-78
2022/04/01 07:45:15;;;;;;;6.80;2.70;;;;;;;1.49;48.70;99196.61;84110;1326;1003023;-75
2022/04/01 07:47:27;;;;;;;9.60;2.40;;;;;;;1.48;49.19;99198.00;84687;1324;22932;-75
2022/04/01 07:49:39;;;;;;;8.20;3.80;;;;;;;1.46;49.49;99196.50;84782;1327;22785;-77
2022/04/01 07:51:47;;;;;;;4.00;2.40;;;;;;;1.42;49.41;99199.48;84767;1326;22577;-77
2022/04/01 07:53:56;;;;;;;12.80;3.80;;;;;;;1.40;49.68;99199.37;84768;1326;25457;-77
2022/04/01 07:56:05;;;;;;;8.70;2.90;;;;;;;1.38;49.85;99197.70;84767;1323;22710;-72
2022/04/01 07:58:14;;;;;;;3.80;2.50;;;;;;;1.35;50.63;99195.68;84767;1327;22759;-71
2022/04/01 08:00:23;;;;;;;10.30;2.90;;;;;;;1.32;50.34;99194.89;84799;1325;22597;-78
2022/04/01 08:02:32;;;;;;;9.50;2.40;;;;;;;1.33;50.82;99204.49;84684;1314;22578;-79
2022/04/01 08:04:44;;;;;;;11.10;2.40;;;;;;;1.32;51.54;99206.05;84752;1326;25483;-81
2022/04/01 08:06:56;;;;;;;8.90;2.80;;;;;;;1.32;51.72;99198.15;84812;1325;22584;-80
2022/04/01 08:09:08;;;;;;;4.90;2.30;;;;;;;1.32;51.46;99199.70;84775;1324;22812;-80
2022/04/01 08:11:20;;;;;;;4.50;2.80;;;;;;;1.33;51.72;99199.52;84693;1329;22649;-72
2022/04/01 08:13:29;;;;;;;6.40;2.50;;;;;;;1.33;51.75;99197.62;84755;1327;22817;-72
2022/04/01 08:15:38;;;;;;;8.20;3.10;;;;;;;1.35;51.83;99202.90;84782;1326;22646;-72
2022/04/01 08:17:47;;;;;;;5.50;2.50;;;;;;;1.34;51.84;99195.54;84773;1326;22600;-73
2022/04/01 08:20:01;;;;;;;6.10;2.20;;;;;;;1.35;52.12;99193.63;84792;1324;23264;-82
2022/04/01 08:22:14;;;;;;;8.80;2.60;;;;;;;1.35;52.59;99198.95;84715;1329;22592;-82
2022/04/01 08:24:24;;;;;;;9.70;2.60;;;;;;;1.31;52.87;99198.16;84784;1326;22602;-73
2022/04/01 08:26:33;;;;;;;9.00;2.80;;;;;;;1.30;53.30;99195.45;84784;1326;22676;-71
2022/04/01 08:28:43;;;;;;;10.20;3.10;;;;;;;1.30;53.65;99191.66;84755;1323;22889;-71
2022/04/01 08:30:55;;;;;;;7.20;2.50;;;;;;;1.28;53.33;99193.75;84795;1326;22584;-72
2022/04/01 08:33:04;;;;;;;9.40;3.80;;;;;;;1.27;53.81;99193.61;84800;1326;22615;-75
2022/04/01 08:35:14;;;;;;;9.50;3.50;;;;;;;1.26;53.95;99197.92;84779;1327;22648;-74
2022/04/01 08:37:23;;;;;;;15.30;3.20;;;;;;;1.27;54.00;99192.91;84712;1327;25294;-75
2022/04/01 08:39:32;;;;;;;7.50;2.70;;;;;;;1.32;54.16;99201.59;84794;1327;22656;-75
2022/04/01 08:41:41;;;;;;;4.90;2.50;;;;;;;1.37;53.93;99202.52;84066;1326;1003748;-75
2022/04/01 08:43:51;;;;;;;4.70;2.50;;;;;;;1.41;53.76;99201.06;84795;1326;22587;-80
2022/04/01 08:46:03;;;;;;;16.60;2.80;;;;;;;1.45;54.25;99203.38;84718;1323;22625;-78
2022/04/01 08:48:13;;;;;;;6.20;2.30;;;;;;;1.46;54.20;99208.52;84765;1326;24162;-81
2022/04/01 08:50:22;;;;;;;12.80;3.90;;;;;;;1.45;54.30;99210.43;83920;1324;1248918;-80
2022/04/01 08:52:31;;;;;;;6.70;4.20;;;;;;;1.43;54.31;99214.60;84746;1326;22588;-80
2022/04/01 08:54:40;;;;;;;16.50;3.80;;;;;;;1.44;54.82;99208.92;84778;1326;22587;-74
2022/04/01 08:56:49;;;;;;;13.00;4.30;;;;;;;1.43;55.15;99205.14;84780;1326;22632;-77
2022/04/01 08:59:00;;;;;;;6.60;3.40;;;;;;;1.43;55.42;99209.44;84700;1329;25430;-75
2022/04/01 09:01:09;;;;;;;8.00;2.90;;;;;;;1.44;55.43;99213.20;84057;1326;1003141;-71
2022/04/01 09:03:20;;;;;;;4.10;2.40;;;;;;;1.47;56.11;99214.52;84797;1328;22608;-77
2022/04/01 09:05:29;;;;;;;7.40;2.70;;;;;;;1.45;56.43;99215.59;84792;1330;22587;-78
2022/04/01 09:07:38;;;;;;;9.50;3.10;;;;;;;1.39;56.24;99218.11;84755;1326;26479;-79
2022/04/01 09:09:50;;;;;;;4.20;2.90;;;;;;;1.36;57.29;99215.59;84723;1327;22805;-78
2022/04/01 09:12:14;;;;;;;11.30;3.10;;;;;;;1.32;57.29;99212.23;84789;1322;24286;-79
2022/04/01 09:14:26;;;;;;;3.30;2.30;;;;;;;1.34;57.60;99207.58;84781;1322;22864;-75
2022/04/01 09:16:39;;;;;;;3.50;2.80;;;;;;;1.35;58.06;99212.34;84070;1322;1003822;-75
2022/04/01 09:18:48;;;;;;;6.30;3.60;;;;;;;1.35;57.71;99212.86;84780;1329;24243;-74
2022/04/01 09:20:59;;;;;;;15.30;5.40;;;;;;;1.38;58.22;99214.70;84764;1324;22673;-76
2022/04/01 09:23:08;;;;;;;12.80;4.30;;;;;;;1.37;58.32;99209.05;84801;1327;23949;-74
2022/04/01 09:25:20;;;;;;;7.30;4.10;;;;;;;1.38;58.26;99209.73;84840;1328;24272;-78
2022/04/01 09:27:47;;;;;;;9.00;4.60;;;;;;;1.36;59.04;99205.64;84782;1325;24323;-82
2022/04/01 09:29:59;;;;;;;9.80;3.20;;;;;;;1.29;59.39;99210.74;84765;1323;22608;-81
2022/04/01 09:32:11;;;;;;;5.40;3.10;;;;;;;1.27;59.22;99207.00;84082;1326;1003581;-80
2022/04/01 09:34:19;;;;;;;8.20;3.60;;;;;;;1.25;59.24;99205.30;84774;1326;24274;-72
2022/04/01 09:36:33;;;;;;;7.50;3.80;;;;;;;1.27;58.82;99205.79;84751;1327;26488;-74
2022/04/01 09:38:42;;;;;;;6.80;2.70;;;;;;;1.32;59.31;99205.02;84752;1326;22586;-72
2022/04/01 09:40:55;;;;;;;9.50;4.10;;;;;;;1.34;59.35;99200.35;84721;1328;22587;-77
2022/04/01 09:43:04;;;;;;;6.50;3.10;;;;;;;1.33;59.33;99195.38;84811;1325;24328;-74
2022/04/01 09:45:13;;;;;;;7.60;2.60;;;;;;;1.32;59.81;99201.23;84715;1326;25461;-74
2022/04/01 09:47:23;;;;;;;8.20;3.90;;;;;;;1.31;59.55;99198.68;84794;1327;22559;-73
2022/04/01 09:49:39;;;;;;;4.50;2.80;;;;;;;1.33;59.68;99196.76;84788;1326;25453;-77
2022/04/01 09:51:48;;;;;;;8.00;2.90;;;;;;;1.36;59.74;99201.84;84048;1327;1003749;-79
2022/04/01 09:54:02;;;;;;;5.50;3.10;;;;;;;1.39;60.27;99196.63;84762;1324;22867;-73
2022/04/01 09:56:11;;;;;;;10.40;3.30;;;;;;;1.44;60.16;99198.27;84767;1327;22593;-75
2022/04/01 09:58:21;;;;;;;4.30;3.00;;;;;;;1.46;60.14;99194.94;84739;1326;22938;-78
2022/04/01 10:00:28;;;;;;;;;;;;;;;1.45;60.18;99201.84;84686;1327;23822;-74
2022/04/01 10:02:37;;;;;;;7.40;2.90;;;;;;;1.43;60.43;99198.63;84805;1325;22609;-75
2022/04/01 10:04:46;;;;;;;5.70;3.00;;;;;;;1.46;60.38;99207.84;84790;1324;22586;-79
2022/04/01 10:06:55;;;;;;;5.00;3.30;;;;;;;1.47;60.64;99203.34;84761;1327;22578;-78
2022/04/01 10:09:07;;;;;;;5.60;2.50;;;;;;;1.50;61.00;99205.71;84764;1330;22619;-78
2022/04/01 10:11:16;;;;;;;3.80;2.80;;;;;;;1.55;61.36;99199.05;84755;1326;22600;-75
2022/04/01 10:13:29;;;;;;;8.90;3.20;;;;;;;1.57;61.67;99204.36;84780;1326;23897;-75
2022/04/01 10:15:38;;;;;;;6.10;3.30;;;;;;;1.54;61.51;99201.50;84826;1328;22608;-76
2022/04/01 10:17:47;;;;;;;7.10;3.50;;;;;;;1.57;61.61;99203.14;84770;1326;25427;-75
2022/04/01 10:19:57;;;;;;;11.00;2.70;;;;;;;1.63;61.80;99198.73;84789;1326;24111;-78
2022/04/01 10:22:06;;;;;;;9.60;4.10;;;;;;;1.65;61.88;99194.91;84773;1329;22594;-77
2022/04/01 10:24:32;;;;;;;9.90;3.20;;;;;;;1.65;62.05;99192.16;84781;1326;25936;-75
2022/04/01 10:26:43;;;;;;;13.90;3.40;;;;;;;1.68;62.25;99193.30;84780;1327;22593;-75
2022/04/01 10:28:53;;;;;;;11.70;3.50;;;;;;;1.69;62.57;99193.27;84792;1326;22580;-77
2022/04/01 10:31:04;;;;;;;10.60;3.90;;;;;;;1.69;62.50;99197.08;84788;1327;22600;-75
2022/04/01 10:33:18;;;;;;;6.90;4.30;;;;;;;1.70;62.85;99203.58;84737;1326;22714;-75
2022/04/01 10:35:30;;;;;;;9.20;3.60;;;;;;;1.69;62.68;99199.32;84742;1331;22611;-75